createdAt,value
2018-06-29T00:01:00.455Z,15.37
2018-06-29T00:03:29.173Z,16.30
2018-06-29T00:05:57.842Z,16.43
2018-06-29T00:08:26.616Z,15.37
2018-06-29T00:10:55.296Z,14.67
2018-06-29T00:13:23.933Z,21.80
2018-06-29T00:15:52.590Z,12.47
2018-06-29T00:18:21.335Z,19.37
2018-06-29T00:20:50.006Z,15.87
2018-06-29T00:23:18.772Z,15.37
2018-06-29T00:25:47.427Z,15.27
2018-06-29T00:28:16.202Z,17.03
2018-06-29T00:30:44.829Z,14.63
2018-06-29T00:33:13.512Z,14.03
2018-06-29T00:35:42.188Z,17.67
2018-06-29T00:38:11.198Z,14.90
2018-06-29T00:40:39.970Z,17.87
2018-06-29T00:43:08.630Z,16.57
2018-06-29T00:45:37.261Z,20.83
2018-06-29T00:48:05.965Z,14.20
2018-06-29T00:50:34.889Z,16.80
2018-06-29T00:53:03.644Z,14.97
2018-06-29T00:55:32.396Z,17.00
2018-06-29T00:58:00.956Z,13.27
2018-06-29T01:00:29.579Z,16.07
2018-06-29T01:02:58.607Z,16.23
2018-06-29T01:05:27.343Z,17.10
2018-06-29T01:07:56.221Z,14.27
2018-06-29T01:10:25.034Z,18.20
2018-06-29T01:12:53.772Z,15.73
2018-06-29T01:15:22.401Z,16.50
2018-06-29T01:17:51.119Z,19.77
2018-06-29T01:20:19.731Z,19.23
2018-06-29T01:22:48.424Z,18.87
2018-06-29T01:25:17.080Z,15.87
2018-06-29T01:27:45.781Z,19.03
2018-06-29T01:30:14.627Z,15.93
2018-06-29T01:32:43.304Z,18.80
2018-06-29T01:35:12.039Z,17.47
2018-06-29T01:37:40.792Z,16.83
2018-06-29T01:40:09.388Z,14.90
2018-06-29T01:42:38.091Z,18.57
2018-06-29T01:45:07.202Z,17.57
2018-06-29T01:47:36.045Z,16.73
2018-06-29T01:50:04.648Z,19.50
2018-06-29T01:52:33.313Z,16.67
2018-06-29T01:55:01.934Z,16.17
2018-06-29T01:57:30.587Z,14.83
2018-06-29T01:59:59.243Z,18.97
2018-06-29T02:02:27.847Z,16.93
2018-06-29T02:04:56.828Z,18.80
2018-06-29T02:07:25.702Z,19.97
2018-06-29T02:09:54.520Z,18.20
2018-06-29T02:12:23.255Z,15.63
2018-06-29T02:14:51.955Z,15.63
2018-06-29T02:17:20.620Z,18.53
2018-06-29T02:19:49.256Z,19.57
2018-06-29T02:22:18.028Z,14.60
2018-06-29T02:24:46.622Z,16.07
2018-06-29T02:27:15.296Z,21.93
2018-06-29T02:29:44.112Z,16.77
2018-06-29T02:32:12.829Z,18.70
2018-06-29T02:34:41.453Z,18.83
2018-06-29T02:37:10.289Z,20.27
2018-06-29T02:39:38.891Z,20.60
2018-06-29T02:42:07.608Z,17.97
2018-06-29T02:44:36.439Z,19.67
2018-06-29T02:47:05.125Z,24.57
2018-06-29T02:49:33.784Z,16.53
2018-06-29T02:52:02.546Z,22.00
2018-06-29T02:54:31.303Z,24.73
2018-06-29T02:57:00.017Z,17.77
2018-06-29T02:59:28.641Z,24.23
2018-06-29T03:01:57.370Z,18.70
2018-06-29T03:04:26.098Z,19.07
2018-06-29T03:06:54.690Z,18.70
2018-06-29T03:09:23.419Z,21.47
2018-06-29T03:11:52.042Z,24.53
2018-06-29T03:14:21.167Z,19.17
2018-06-29T03:16:49.896Z,24.77
2018-06-29T03:19:18.553Z,21.03
2018-06-29T03:21:47.246Z,17.73
2018-06-29T03:24:15.890Z,19.27
2018-06-29T03:26:44.637Z,19.53
2018-06-29T03:29:13.577Z,18.83
2018-06-29T03:31:42.375Z,25.77
2018-06-29T03:34:11.116Z,17.33
2018-06-29T03:36:39.936Z,18.73
2018-06-29T03:39:10.056Z,22.93
2018-06-29T03:41:38.948Z,15.10
2018-06-29T03:44:07.949Z,16.23
2018-06-29T03:46:36.913Z,16.13
2018-06-29T03:49:05.716Z,20.97
2018-06-29T03:51:34.499Z,15.80
2018-06-29T03:54:03.305Z,19.27
2018-06-29T03:56:32.065Z,15.70
2018-06-29T03:59:00.926Z,17.30
2018-06-29T04:01:29.746Z,14.97
2018-06-29T04:03:58.391Z,16.10
2018-06-29T04:06:27.076Z,16.17
2018-06-29T04:08:55.719Z,18.23
2018-06-29T04:11:24.567Z,15.80
2018-06-29T04:13:53.313Z,14.63
2018-06-29T04:16:21.955Z,18.70
2018-06-29T04:18:50.722Z,18.03
2018-06-29T04:21:19.459Z,14.23
2018-06-29T04:23:49.375Z,18.73
2018-06-29T04:26:18.413Z,14.33
2018-06-29T04:28:47.262Z,18.80
2018-06-29T04:31:15.906Z,19.07
2018-06-29T04:33:44.672Z,18.03
2018-06-29T04:36:13.484Z,22.63
2018-06-29T04:38:42.642Z,16.33
2018-06-29T04:41:11.838Z,15.90
2018-06-29T04:43:41.692Z,22.53
2018-06-29T04:46:17.052Z,18.00
2018-06-29T04:48:46.969Z,19.90
2018-06-29T04:51:16.130Z,17.03
2018-06-29T04:53:44.691Z,14.73
2018-06-29T04:56:14.597Z,17.77
2018-06-29T04:58:43.285Z,17.83
2018-06-29T05:01:11.837Z,15.13
2018-06-29T05:03:40.733Z,22.33
2018-06-29T05:06:10.289Z,15.27
2018-06-29T05:08:39.336Z,17.47
2018-06-29T05:11:08.257Z,14.67
2018-06-29T05:13:37.207Z,16.73
2018-06-29T05:16:05.780Z,27.70
2018-06-29T05:18:34.940Z,16.67
2018-06-29T05:21:04.163Z,14.23
2018-06-29T05:23:39.472Z,17.43
2018-06-29T05:26:08.065Z,16.27
2018-06-29T05:28:37.715Z,15.53
2018-06-29T05:31:06.436Z,12.87
2018-06-29T05:33:34.995Z,13.17
2018-06-29T05:36:03.596Z,13.73
2018-06-29T05:38:33.572Z,20.77
2018-06-29T05:41:02.344Z,13.77
2018-06-29T05:43:31.144Z,13.40
2018-06-29T05:45:59.753Z,15.93
2018-06-29T05:48:29.183Z,13.50
2018-06-29T05:50:58.413Z,15.00
2018-06-29T05:53:27.395Z,17.00
2018-06-29T05:55:55.993Z,16.60
2018-06-29T05:58:24.788Z,16.40
2018-06-29T06:00:53.681Z,16.77
2018-06-29T06:03:22.212Z,16.20
2018-06-29T06:05:50.961Z,21.33
2018-06-29T06:08:19.634Z,14.13
2018-06-29T06:10:48.162Z,15.20
2018-06-29T06:13:16.817Z,14.83
2018-06-29T06:15:45.609Z,15.27
2018-06-29T06:18:14.302Z,19.47
2018-06-29T06:20:44.284Z,15.20
2018-06-29T06:23:17.823Z,12.83
2018-06-29T06:25:46.619Z,12.57
2018-06-29T06:28:15.138Z,12.73
2018-06-29T06:30:45.104Z,12.50
2018-06-29T06:33:13.655Z,14.97
2018-06-29T06:35:42.580Z,13.37
2018-06-29T06:38:11.492Z,11.73
2018-06-29T06:40:40.697Z,11.87
2018-06-29T06:43:09.222Z,11.90
2018-06-29T06:45:37.816Z,15.03
2018-06-29T06:48:06.391Z,13.60
2018-06-29T06:50:35.638Z,14.73
2018-06-29T06:53:04.441Z,14.77
2018-06-29T06:55:32.976Z,10.53
2018-06-29T06:58:01.852Z,11.00
2018-06-29T07:00:30.381Z,12.07
2018-06-29T07:02:59.434Z,13.20
2018-06-29T07:05:28.168Z,14.60
2018-06-29T07:07:56.807Z,10.83
2018-06-29T07:10:25.493Z,13.73
2018-06-29T07:12:53.984Z,15.00
2018-06-29T07:15:23.221Z,13.70
2018-06-29T07:17:51.725Z,13.47
2018-06-29T07:20:20.260Z,12.37
2018-06-29T07:22:48.984Z,13.77
2018-06-29T07:25:17.508Z,18.30
2018-06-29T07:27:46.181Z,12.83
2018-06-29T07:30:14.738Z,12.03
2018-06-29T07:32:43.537Z,12.90
2018-06-29T07:35:12.109Z,14.73
2018-06-29T07:37:40.644Z,13.93
2018-06-29T07:40:09.187Z,13.00
2018-06-29T07:42:37.761Z,14.17
2018-06-29T07:45:06.551Z,11.37
2018-06-29T07:47:35.171Z,12.13
2018-06-29T07:50:04.022Z,16.37
2018-06-29T07:52:34.713Z,17.50
2018-06-29T07:55:03.987Z,16.53
2018-06-29T07:57:33.051Z,17.33
2018-06-29T08:00:03.997Z,18.00
2018-06-29T08:02:33.488Z,12.97
2018-06-29T08:05:02.751Z,14.37
2018-06-29T08:07:32.177Z,12.17
2018-06-29T08:10:02.105Z,15.13
2018-06-29T08:12:31.233Z,11.77
2018-06-29T08:15:00.344Z,14.33
2018-06-29T08:17:29.775Z,15.13
2018-06-29T08:19:58.820Z,10.67
2018-06-29T08:22:29.302Z,11.90
2018-06-29T08:25:08.285Z,9.77
2018-06-29T08:27:37.796Z,12.23
2018-06-29T08:30:08.153Z,13.53
2018-06-29T08:32:37.137Z,10.20
2018-06-29T08:35:06.591Z,9.00
2018-06-29T08:37:35.933Z,11.63
2018-06-29T08:40:05.600Z,14.30
2018-06-29T08:42:35.426Z,9.13
2018-06-29T08:45:04.441Z,10.20
2018-06-29T08:47:33.400Z,11.10
2018-06-29T08:50:02.669Z,9.13
2018-06-29T08:52:31.896Z,9.13
2018-06-29T08:55:01.354Z,11.10
2018-06-29T08:57:30.704Z,15.53
2018-06-29T09:00:00.086Z,11.80
2018-06-29T09:02:28.705Z,9.93
2018-06-29T09:04:57.856Z,9.95
2018-06-29T09:07:27.553Z,7.00
2018-06-29T09:09:57.034Z,8.35
2018-06-29T09:12:26.195Z,13.75
2018-06-29T09:14:54.849Z,9.20
2018-06-29T09:17:23.913Z,15.25
2018-06-29T09:19:53.707Z,10.68
2018-06-29T09:22:22.393Z,7.20
2018-06-29T09:24:51.212Z,9.28
2018-06-29T09:27:20.611Z,11.85
2018-06-29T09:29:49.550Z,9.65
2018-06-29T09:32:18.744Z,7.08
2018-06-29T09:34:47.409Z,6.62
2018-06-29T09:37:16.154Z,10.35
2018-06-29T09:39:44.769Z,7.40
2018-06-29T09:42:13.393Z,10.15
2018-06-29T09:44:42.090Z,9.93
2018-06-29T09:47:10.694Z,8.58
2018-06-29T09:49:39.313Z,7.00
2018-06-29T09:52:07.964Z,9.65
2018-06-29T09:54:38.118Z,7.33
2018-06-29T09:57:06.852Z,10.30
2018-06-29T09:59:35.687Z,10.37
2018-06-29T10:02:04.434Z,10.18
2018-06-29T10:04:33.105Z,9.00
2018-06-29T10:07:01.783Z,7.03
2018-06-29T10:09:31.380Z,23.12
2018-06-29T10:12:00.014Z,6.42
2018-06-29T10:14:28.714Z,6.83
2018-06-29T10:16:57.377Z,7.72
2018-06-29T10:19:26.119Z,8.63
2018-06-29T10:21:54.714Z,8.70
2018-06-29T10:24:23.845Z,7.30
2018-06-29T10:26:52.497Z,9.80
2018-06-29T10:29:21.174Z,6.33
2018-06-29T10:31:49.707Z,9.50
2018-06-29T10:34:18.227Z,8.75
2018-06-29T10:36:46.943Z,7.30
2018-06-29T10:39:16.365Z,8.65
2018-06-29T10:41:45.223Z,6.75
2018-06-29T10:44:13.745Z,8.93
2018-06-29T10:46:42.617Z,10.20
2018-06-29T10:49:11.192Z,10.20
2018-06-29T10:51:39.778Z,11.43
2018-06-29T10:54:08.392Z,7.13
2018-06-29T10:56:36.904Z,8.80
2018-06-29T10:59:05.414Z,8.03
2018-06-29T11:01:33.958Z,9.27
2018-06-29T11:04:02.447Z,9.47
2018-06-29T11:06:31.244Z,11.33
2018-06-29T11:08:59.744Z,10.43
2018-06-29T11:11:28.476Z,11.67
2018-06-29T11:13:57.010Z,10.07
2018-06-29T11:16:25.629Z,13.23
2018-06-29T11:18:54.131Z,8.07
2018-06-29T11:21:22.627Z,9.57
2018-06-29T11:23:51.187Z,10.57
2018-06-29T11:26:19.741Z,7.90
2018-06-29T11:28:48.525Z,9.53
2018-06-29T11:31:17.069Z,8.23
2018-06-29T11:33:45.584Z,8.50
2018-06-29T11:36:14.121Z,13.37
2018-06-29T11:38:42.676Z,15.53
2018-06-29T11:41:11.173Z,9.90
2018-06-29T11:43:39.725Z,18.53
2018-06-29T11:46:08.269Z,16.00
2018-06-29T11:48:36.912Z,7.07
2018-06-29T11:51:05.592Z,9.77
2018-06-29T11:53:34.249Z,11.83
2018-06-29T11:56:03.126Z,10.40
2018-06-29T11:58:31.668Z,9.27
2018-06-29T12:01:00.305Z,9.87
2018-06-29T12:03:28.890Z,13.13
2018-06-29T12:05:57.430Z,8.77
2018-06-29T12:08:26.083Z,7.37
2018-06-29T12:10:54.630Z,9.53
2018-06-29T12:13:23.150Z,8.40
2018-06-29T12:15:51.826Z,13.57
2018-06-29T12:18:20.745Z,9.67
2018-06-29T12:20:49.246Z,8.33
2018-06-29T12:23:17.882Z,11.13
2018-06-29T12:25:46.597Z,11.97
2018-06-29T12:28:15.147Z,11.73
2018-06-29T12:30:43.724Z,12.87
2018-06-29T12:33:12.303Z,8.17
2018-06-29T12:35:40.838Z,9.90
2018-06-29T12:38:09.483Z,10.90
2018-06-29T12:40:38.037Z,10.73
2018-06-29T12:43:06.811Z,9.80
2018-06-29T12:45:35.372Z,9.80
2018-06-29T12:48:03.908Z,8.53
2018-06-29T12:50:32.405Z,7.87
2018-06-29T12:53:00.971Z,11.53
2018-06-29T12:55:29.637Z,13.37
2018-06-29T12:57:58.228Z,9.30
2018-06-29T13:00:26.814Z,8.80
2018-06-29T13:02:55.457Z,8.20
2018-06-29T13:05:24.061Z,11.93
2018-06-29T13:07:52.588Z,8.87
2018-06-29T13:10:21.089Z,8.03
2018-06-29T13:12:49.578Z,12.10
2018-06-29T13:15:18.094Z,15.10
2018-06-29T13:17:46.597Z,19.13
2018-06-29T13:20:15.209Z,11.20
2018-06-29T13:22:43.741Z,12.40
2018-06-29T13:25:12.368Z,10.83
2018-06-29T13:27:40.902Z,7.77
2018-06-29T13:30:09.438Z,8.67
2018-06-29T13:32:37.960Z,8.93
2018-06-29T13:35:06.575Z,9.97
2018-06-29T13:37:35.722Z,7.80
2018-06-29T13:40:04.439Z,8.37
2018-06-29T13:42:33.488Z,11.97
2018-06-29T13:45:02.043Z,8.00
2018-06-29T13:47:30.821Z,9.07
2018-06-29T13:49:59.346Z,12.90
2018-06-29T13:52:27.873Z,7.23
2018-06-29T13:54:56.618Z,7.03
2018-06-29T13:57:25.075Z,8.23
2018-06-29T13:59:53.688Z,9.37
2018-06-29T14:02:22.251Z,8.97
2018-06-29T14:04:51.534Z,7.17
2018-06-29T14:07:20.187Z,9.57
2018-06-29T14:09:48.696Z,8.63
2018-06-29T14:12:17.181Z,6.70
2018-06-29T14:14:45.740Z,10.77
2018-06-29T14:17:14.421Z,8.47
2018-06-29T14:19:43.773Z,8.97
2018-06-29T14:22:13.002Z,8.50
2018-06-29T14:24:41.553Z,7.13
2018-06-29T14:27:10.050Z,7.33
2018-06-29T14:29:38.548Z,6.80
2018-06-29T14:32:07.044Z,14.73
2018-06-29T14:34:35.692Z,7.37
2018-06-29T14:37:04.213Z,9.87
2018-06-29T14:39:32.709Z,9.40
2018-06-29T14:42:01.253Z,12.03
2018-06-29T14:44:29.772Z,11.13
2018-06-29T14:46:58.273Z,7.87
2018-06-29T14:49:26.779Z,9.37
2018-06-29T14:51:55.434Z,10.00
2018-06-29T14:54:23.921Z,8.47
2018-06-29T14:56:52.665Z,10.60
2018-06-29T14:59:21.433Z,10.47
2018-06-29T15:01:50.047Z,6.60
2018-06-29T15:04:18.890Z,6.20
2018-06-29T15:06:47.446Z,9.00
2018-06-29T15:09:15.981Z,8.03
2018-06-29T15:11:44.509Z,5.70
2018-06-29T15:14:13.044Z,5.53
2018-06-29T15:16:41.706Z,5.80
2018-06-29T15:19:10.238Z,6.30
2018-06-29T15:21:39.020Z,9.20
2018-06-29T15:24:08.280Z,9.20
2018-06-29T15:26:36.942Z,6.50
2018-06-29T15:29:06.203Z,6.67
2018-06-29T15:31:35.499Z,6.17
2018-06-29T15:34:04.233Z,7.00
2018-06-29T15:36:33.185Z,7.07
2018-06-29T15:39:01.889Z,6.33
2018-06-29T15:41:30.897Z,6.33
2018-06-29T15:43:59.752Z,10.47
2018-06-29T15:46:28.654Z,8.20
2018-06-29T15:48:57.605Z,6.87
2018-06-29T15:51:26.443Z,9.43
2018-06-29T15:53:55.482Z,7.30
2018-06-29T15:56:24.535Z,6.63
2018-06-29T15:58:53.565Z,8.87
2018-06-29T16:01:22.489Z,11.80
2018-06-29T16:03:51.311Z,8.90
2018-06-29T16:06:20.321Z,10.07
2018-06-29T16:08:49.328Z,11.47
2018-06-29T16:11:17.876Z,10.33
2018-06-29T16:13:47.382Z,9.13
2018-06-29T16:16:16.068Z,11.80
2018-06-29T16:18:44.918Z,12.13
2018-06-29T16:21:13.458Z,9.40
2018-06-29T16:23:42.020Z,10.97
2018-06-29T16:26:10.597Z,12.03
2018-06-29T16:28:39.185Z,10.60
2018-06-29T16:31:07.759Z,9.77
2018-06-29T16:33:36.346Z,11.10
2018-06-29T16:36:04.985Z,11.60
2018-06-29T16:38:33.583Z,12.33
2018-06-29T16:41:02.226Z,14.23
2018-06-29T16:43:32.917Z,11.17
2018-06-29T16:46:01.446Z,10.80
2018-06-29T16:48:30.118Z,10.37
2018-06-29T16:50:58.904Z,10.80
2018-06-29T16:53:27.548Z,10.33
2018-06-29T16:55:56.243Z,13.10
2018-06-29T16:58:24.827Z,9.50
2018-06-29T17:00:53.743Z,12.17
2018-06-29T17:03:22.633Z,9.30
2018-06-29T17:05:51.172Z,9.60
2018-06-29T17:08:19.784Z,11.00
2018-06-29T17:10:48.339Z,10.17
2018-06-29T17:13:17.049Z,13.80
2018-06-29T17:15:46.034Z,12.07
2018-06-29T17:18:15.374Z,11.67
2018-06-29T17:20:44.228Z,12.37
2018-06-29T17:23:13.230Z,12.87
2018-06-29T17:25:41.917Z,9.47
2018-06-29T17:28:10.497Z,8.57
2018-06-29T17:30:39.989Z,11.37
2018-06-29T17:33:08.617Z,9.87
2018-06-29T17:35:37.308Z,10.20
2018-06-29T17:38:06.170Z,10.00
2018-06-29T17:40:35.629Z,11.83
2018-06-29T17:43:04.234Z,10.90
2018-06-29T17:45:32.900Z,10.23
2018-06-29T17:48:01.419Z,8.27
2018-06-29T17:50:33.104Z,9.10
2018-06-29T17:53:01.709Z,9.20
2018-06-29T17:55:30.413Z,12.63
2018-06-29T17:57:59.282Z,11.37
2018-06-29T18:00:27.908Z,12.13
2018-06-29T18:02:56.545Z,15.67
2018-06-29T18:05:25.141Z,22.37
2018-06-29T18:07:53.669Z,13.90
2018-06-29T18:10:22.414Z,11.90
2018-06-29T18:12:51.257Z,13.90
2018-06-29T18:15:20.345Z,9.40
2018-06-29T18:17:49.036Z,13.60
2018-06-29T18:20:18.183Z,13.90
2018-06-29T18:22:47.046Z,13.47
2018-06-29T18:25:15.786Z,12.70
2018-06-29T18:27:44.539Z,9.20
2018-06-29T18:30:13.588Z,11.20
2018-06-29T18:32:42.374Z,12.10
2018-06-29T18:35:11.385Z,11.37
2018-06-29T18:37:40.255Z,9.77
2018-06-29T18:40:09.124Z,11.40
2018-06-29T18:42:38.222Z,9.27
2018-06-29T18:45:07.097Z,12.30
2018-06-29T18:47:36.054Z,8.53
2018-06-29T18:50:05.085Z,10.07
2018-06-29T18:52:33.921Z,10.37
2018-06-29T18:55:02.510Z,12.30
2018-06-29T18:57:31.171Z,10.60
2018-06-29T18:59:59.779Z,9.17
2018-06-29T19:02:28.694Z,10.20
2018-06-29T19:04:57.364Z,9.27
2018-06-29T19:07:26.548Z,10.40
2018-06-29T19:09:55.452Z,9.90
2018-06-29T19:12:24.287Z,19.57
2018-06-29T19:14:53.199Z,9.87
2018-06-29T19:17:21.967Z,14.30
2018-06-29T19:19:50.716Z,11.10
2018-06-29T19:22:19.639Z,12.80
2018-06-29T19:24:48.557Z,16.13
2018-06-29T19:27:17.373Z,10.70
2018-06-29T19:29:46.221Z,11.17
2018-06-29T19:32:15.067Z,11.30
2018-06-29T19:34:44.018Z,13.30
2018-06-29T19:37:12.989Z,12.00
2018-06-29T19:39:41.892Z,14.47
2018-06-29T19:42:10.673Z,12.73
2018-06-29T19:44:39.518Z,13.47
2018-06-29T19:47:08.526Z,12.83
2018-06-29T19:49:37.317Z,14.30
2018-06-29T19:52:06.236Z,13.40
2018-06-29T19:54:36.094Z,13.93
2018-06-29T19:57:05.031Z,13.90
2018-06-29T19:59:33.769Z,14.20
2018-06-29T20:02:02.750Z,12.73
2018-06-29T20:04:31.571Z,15.73
2018-06-29T20:07:00.369Z,12.03
2018-06-29T20:09:29.330Z,13.33
2018-06-29T20:11:58.077Z,13.87
2018-06-29T20:14:26.685Z,14.93
2018-06-29T20:16:55.212Z,13.70
2018-06-29T20:19:23.788Z,14.17
2018-06-29T20:21:52.394Z,13.63
2018-06-29T20:24:20.989Z,15.33
2018-06-29T20:26:49.513Z,13.47
2018-06-29T20:29:18.140Z,15.33
2018-06-29T20:31:47.064Z,16.63
2018-06-29T20:34:15.617Z,16.90
2018-06-29T20:36:44.128Z,14.03
2018-06-29T20:39:13.291Z,17.03
2018-06-29T20:41:41.926Z,17.33
2018-06-29T20:44:10.801Z,13.37
2018-06-29T20:46:39.460Z,14.23
2018-06-29T20:49:07.974Z,15.37
2018-06-29T20:51:36.533Z,15.90
2018-06-29T20:54:05.440Z,14.47
2018-06-29T20:56:34.260Z,13.90
2018-06-29T20:59:02.880Z,15.43
2018-06-29T21:01:31.527Z,16.70
2018-06-29T21:04:00.380Z,16.77
2018-06-29T21:06:29.149Z,16.97
2018-06-29T21:08:58.091Z,15.80
2018-06-29T21:11:26.876Z,17.57
2018-06-29T21:13:55.630Z,19.37
2018-06-29T21:16:24.383Z,17.67
2018-06-29T21:18:53.098Z,18.50
2018-06-29T21:21:21.908Z,19.00
2018-06-29T21:23:50.721Z,19.07
2018-06-29T21:26:19.419Z,19.63
2018-06-29T21:28:48.343Z,17.83
2018-06-29T21:31:17.176Z,19.13
2018-06-29T21:33:45.975Z,17.90
2018-06-29T21:36:14.697Z,21.13
2018-06-29T21:38:43.394Z,20.40
2018-06-29T21:41:12.158Z,21.27
2018-06-29T21:43:41.027Z,22.67
2018-06-29T21:46:09.893Z,20.73
2018-06-29T21:48:38.625Z,22.00
2018-06-29T21:51:07.442Z,21.77
2018-06-29T21:53:36.154Z,17.57
2018-06-29T21:56:05.110Z,17.67
2018-06-29T21:58:33.825Z,16.97
2018-06-29T22:01:04.898Z,18.23
2018-06-29T22:03:33.723Z,20.23
2018-06-29T22:06:03.512Z,24.07
2018-06-29T22:08:32.164Z,17.73
2018-06-29T22:11:00.795Z,26.87
2018-06-29T22:13:29.705Z,20.80
2018-06-29T22:15:58.511Z,24.50
2018-06-29T22:18:27.354Z,22.90
2018-06-29T22:20:56.292Z,23.63
2018-06-29T22:23:25.025Z,24.27
2018-06-29T22:25:53.720Z,25.30
2018-06-29T22:28:22.594Z,24.60
2018-06-29T22:30:51.279Z,26.23
2018-06-29T22:33:19.950Z,25.40
2018-06-29T22:35:48.752Z,24.07
2018-06-29T22:38:17.564Z,21.70
2018-06-29T22:40:46.390Z,24.43
2018-06-29T22:43:15.064Z,24.37
2018-06-29T22:45:43.798Z,25.17
2018-06-29T22:48:13.128Z,23.60
2018-06-29T22:50:41.769Z,27.43
2018-06-29T22:53:10.527Z,26.27
2018-06-29T22:55:39.202Z,26.53
2018-06-29T22:58:07.850Z,26.63
2018-06-29T23:00:36.523Z,31.60
2018-06-29T23:03:11.358Z,28.40
2018-06-29T23:05:40.121Z,29.17
2018-06-29T23:08:10.478Z,27.37
2018-06-29T23:10:39.581Z,27.33
2018-06-29T23:13:09.303Z,27.83
2018-06-29T23:15:38.193Z,26.37
2018-06-29T23:18:06.919Z,22.97
2018-06-29T23:20:35.691Z,26.13
2018-06-29T23:23:04.476Z,27.43
2018-06-29T23:25:33.272Z,30.27
2018-06-29T23:28:01.967Z,29.63
2018-06-29T23:30:30.700Z,30.53
2018-06-29T23:32:59.394Z,31.00
2018-06-29T23:35:28.097Z,29.67
2018-06-29T23:37:56.886Z,29.50
2018-06-29T23:40:25.674Z,31.63
2018-06-29T23:42:54.386Z,37.43
2018-06-29T23:45:23.135Z,31.63
2018-06-29T23:47:51.825Z,35.57
2018-06-29T23:50:20.588Z,32.17
2018-06-29T23:52:49.404Z,34.40
2018-06-29T23:55:18.252Z,34.80
2018-06-29T23:57:47.017Z,36.17
